createdAt,value
2022-09-30T00:02:01.445Z,100.00
2022-09-30T00:04:31.518Z,100.00
2022-09-30T00:07:01.371Z,100.00
2022-09-30T00:09:31.291Z,100.00
2022-09-30T00:12:01.478Z,100.00
2022-09-30T00:14:31.355Z,100.00
2022-09-30T00:17:04.830Z,100.00
2022-09-30T00:19:34.759Z,100.00
2022-09-30T00:22:04.729Z,100.00
2022-09-30T00:24:34.741Z,100.00
2022-09-30T00:27:04.898Z,100.00
2022-09-30T00:29:35.128Z,100.00
2022-09-30T00:32:07.936Z,100.00
2022-09-30T00:34:37.987Z,100.00
2022-09-30T00:37:08.974Z,100.00
2022-09-30T00:39:38.909Z,100.00
2022-09-30T00:42:14.432Z,100.00
2022-09-30T00:44:57.304Z,100.00
2022-09-30T00:47:46.412Z,100.00
2022-09-30T00:50:28.459Z,100.00
2022-09-30T00:53:04.907Z,100.00
2022-09-30T00:55:41.350Z,100.00
2022-09-30T00:58:14.946Z,100.00
2022-09-30T01:00:44.952Z,100.00
2022-09-30T01:03:18.083Z,100.00
2022-09-30T01:05:47.952Z,100.00
2022-09-30T01:08:19.279Z,100.00
2022-09-30T01:10:49.673Z,100.00
2022-09-30T01:13:22.602Z,100.00
2022-09-30T01:16:14.609Z,100.00
2022-09-30T01:19:02.200Z,100.00
2022-09-30T01:22:03.723Z,100.00
2022-09-30T01:25:19.140Z,100.00
2022-09-30T01:28:21.382Z,100.00
2022-09-30T01:31:10.712Z,100.00
2022-09-30T01:33:49.270Z,100.00
2022-09-30T01:36:41.866Z,100.00
2022-09-30T01:39:26.885Z,100.00
2022-09-30T01:42:04.117Z,100.00
2022-09-30T01:44:38.641Z,100.00
2022-09-30T01:47:18.800Z,100.00
2022-09-30T01:49:53.956Z,100.00
2022-09-30T01:52:28.337Z,100.00
2022-09-30T01:55:04.986Z,100.00
2022-09-30T01:57:42.155Z,100.00
2022-09-30T02:00:14.217Z,100.00
2022-09-30T02:02:51.599Z,100.00
2022-09-30T02:05:26.533Z,100.00
2022-09-30T02:08:01.858Z,100.00
2022-09-30T02:10:36.821Z,100.00
2022-09-30T02:13:13.872Z,100.00
2022-09-30T02:15:51.184Z,100.00
2022-09-30T02:18:29.581Z,100.00
2022-09-30T02:21:04.425Z,100.00
2022-09-30T02:23:40.917Z,100.00
2022-09-30T02:26:16.325Z,100.00
2022-09-30T02:28:53.550Z,100.00
2022-09-30T02:31:26.579Z,100.00
2022-09-30T02:34:05.005Z,100.00
2022-09-30T02:36:40.016Z,100.00
2022-09-30T02:39:13.869Z,100.00
2022-09-30T02:41:51.477Z,100.00
2022-09-30T02:44:22.530Z,100.00
2022-09-30T02:46:59.565Z,100.00
2022-09-30T02:49:40.200Z,100.00
2022-09-30T02:52:18.677Z,100.00
2022-09-30T02:54:56.451Z,100.00
2022-09-30T02:57:37.212Z,100.00
2022-09-30T03:00:12.921Z,100.00
2022-09-30T03:02:43.513Z,100.00
2022-09-30T03:05:17.716Z,100.00
2022-09-30T03:07:47.460Z,100.00
2022-09-30T03:10:18.511Z,100.00
2022-09-30T03:13:11.941Z,100.00
2022-09-30T03:15:54.302Z,100.00
2022-09-30T03:18:57.419Z,100.00
2022-09-30T03:21:48.014Z,100.00
2022-09-30T03:24:43.570Z,100.00
2022-09-30T03:27:31.356Z,100.00
2022-09-30T03:30:06.841Z,100.00
2022-09-30T03:32:52.503Z,100.00
2022-09-30T03:35:31.114Z,100.00
2022-09-30T03:38:13.393Z,100.00
2022-09-30T03:40:54.943Z,100.00
2022-09-30T03:43:32.875Z,100.00
2022-09-30T03:46:08.242Z,100.00
2022-09-30T03:48:40.805Z,100.00
2022-09-30T03:51:11.817Z,100.00
2022-09-30T03:53:46.796Z,100.00
2022-09-30T03:56:17.150Z,100.00
2022-09-30T03:58:47.509Z,100.00
2022-09-30T04:01:22.837Z,100.00
2022-09-30T04:03:53.580Z,100.00
2022-09-30T04:06:24.738Z,100.00
2022-09-30T04:08:57.112Z,100.00
2022-09-30T04:11:26.928Z,100.00
2022-09-30T04:13:56.642Z,100.00
2022-09-30T04:16:26.415Z,100.00
2022-09-30T04:18:56.913Z,100.00
2022-09-30T04:21:28.863Z,100.00
2022-09-30T04:24:01.250Z,100.00
2022-09-30T04:26:31.070Z,100.00
2022-09-30T04:29:01.128Z,100.00
2022-09-30T04:31:31.013Z,100.00
2022-09-30T04:34:00.847Z,100.00
2022-09-30T04:36:30.610Z,100.00
2022-09-30T04:39:03.199Z,100.00
2022-09-30T04:41:34.320Z,100.00
2022-09-30T04:44:07.090Z,100.00
2022-09-30T04:46:44.332Z,100.00
2022-09-30T04:49:14.221Z,100.00
2022-09-30T04:51:46.310Z,100.00
2022-09-30T04:54:19.463Z,100.00
2022-09-30T04:56:49.250Z,100.00
2022-09-30T04:59:19.236Z,100.00
2022-09-30T05:01:48.999Z,100.00
2022-09-30T05:04:19.102Z,100.00
2022-09-30T05:06:49.821Z,100.00
2022-09-30T05:09:22.303Z,100.00
2022-09-30T05:11:52.223Z,100.00
2022-09-30T05:14:22.321Z,100.00
2022-09-30T05:16:52.023Z,100.00
2022-09-30T05:19:21.849Z,100.00
2022-09-30T05:21:52.204Z,100.00
2022-09-30T05:24:24.870Z,100.00
2022-09-30T05:26:54.602Z,100.00
2022-09-30T05:29:24.418Z,100.00
2022-09-30T05:31:54.513Z,100.00
2022-09-30T05:34:24.297Z,100.00
2022-09-30T05:36:54.036Z,100.00
2022-09-30T05:39:26.372Z,100.00
2022-09-30T05:41:56.188Z,100.00
2022-09-30T05:44:25.926Z,100.00
2022-09-30T05:46:55.754Z,100.00
2022-09-30T05:49:25.645Z,100.00
2022-09-30T05:51:56.076Z,100.00
2022-09-30T05:54:28.869Z,100.00
2022-09-30T05:56:58.625Z,100.00
2022-09-30T05:59:28.457Z,100.00
2022-09-30T06:01:58.246Z,100.00
2022-09-30T06:04:28.125Z,100.00
2022-09-30T06:06:57.846Z,100.00
2022-09-30T06:09:30.276Z,100.00
2022-09-30T06:12:00.746Z,100.00
2022-09-30T06:14:30.999Z,100.00
2022-09-30T06:17:00.728Z,100.00
2022-09-30T06:19:31.133Z,100.00
2022-09-30T06:22:01.553Z,100.00
2022-09-30T06:24:33.888Z,100.00
2022-09-30T06:27:03.628Z,100.00
2022-09-30T06:29:33.370Z,100.00
2022-09-30T06:32:03.314Z,100.00
2022-09-30T06:34:33.094Z,100.00
2022-09-30T06:37:02.823Z,100.00
2022-09-30T06:39:35.471Z,100.00
2022-09-30T06:42:05.401Z,100.00
2022-09-30T06:44:48.901Z,100.00
2022-09-30T06:47:25.560Z,100.00
2022-09-30T06:49:59.078Z,100.00
2022-09-30T06:52:29.179Z,100.00
2022-09-30T06:55:01.573Z,100.00
2022-09-30T06:57:31.443Z,100.00
2022-09-30T07:00:01.567Z,100.00
2022-09-30T07:02:33.104Z,100.00
2022-09-30T07:05:03.800Z,100.00
2022-09-30T07:07:34.896Z,100.00
2022-09-30T07:10:07.998Z,100.00
2022-09-30T07:12:37.796Z,100.00
2022-09-30T07:15:13.400Z,100.00
2022-09-30T07:17:43.552Z,100.00
2022-09-30T07:20:14.906Z,100.00
2022-09-30T07:22:45.430Z,100.00
2022-09-30T07:25:18.738Z,100.00
2022-09-30T07:27:48.669Z,100.00
2022-09-30T07:30:26.705Z,100.00
2022-09-30T07:32:57.028Z,100.00
2022-09-30T07:35:26.916Z,100.00
2022-09-30T07:37:56.744Z,100.00
2022-09-30T07:40:31.547Z,100.00
2022-09-30T07:43:02.017Z,100.00
2022-09-30T07:45:31.827Z,100.00
2022-09-30T07:48:02.126Z,100.00
2022-09-30T07:50:32.502Z,100.00
2022-09-30T07:53:02.306Z,100.00
2022-09-30T07:55:34.811Z,100.00
2022-09-30T07:58:06.297Z,100.00
2022-09-30T08:00:42.636Z,100.00
2022-09-30T08:03:13.062Z,100.00
2022-09-30T08:05:44.805Z,100.00
2022-09-30T08:08:15.236Z,100.00
2022-09-30T08:10:47.782Z,100.00
2022-09-30T08:13:17.508Z,100.00
2022-09-30T08:15:47.228Z,100.00
2022-09-30T08:18:16.940Z,100.00
2022-09-30T08:20:46.689Z,100.00
2022-09-30T08:23:16.479Z,100.00
2022-09-30T08:25:48.934Z,100.00
2022-09-30T08:28:19.203Z,100.00
2022-09-30T08:30:48.950Z,100.00
2022-09-30T08:33:18.671Z,100.00
2022-09-30T08:35:48.422Z,100.00
2022-09-30T08:38:18.175Z,100.00
2022-09-30T08:41:00.127Z,100.00
2022-09-30T08:43:38.880Z,100.00
2022-09-30T08:46:14.185Z,100.00
2022-09-30T08:48:52.059Z,100.00
2022-09-30T08:51:33.082Z,100.00
2022-09-30T08:54:08.361Z,100.00
2022-09-30T08:56:40.690Z,100.00
2022-09-30T08:59:19.424Z,100.00
2022-09-30T09:01:51.863Z,100.00
2022-09-30T09:04:21.924Z,100.00
2022-09-30T09:07:01.357Z,100.00
2022-09-30T09:09:46.489Z,100.00
2022-09-30T09:12:32.349Z,100.00
2022-09-30T09:15:16.751Z,100.00
2022-09-30T09:18:22.491Z,100.00
2022-09-30T09:20:57.918Z,100.00
2022-09-30T09:23:28.986Z,100.00
2022-09-30T09:25:58.989Z,100.00
2022-09-30T09:28:38.626Z,100.00
2022-09-30T09:31:08.911Z,100.00
2022-09-30T09:33:42.277Z,100.00
2022-09-30T09:36:28.438Z,99.37
2022-09-30T09:39:09.078Z,98.99
2022-09-30T09:41:47.945Z,98.40
2022-09-30T09:44:29.523Z,98.28
2022-09-30T09:47:07.518Z,97.89
2022-09-30T09:49:41.616Z,97.67
2022-09-30T09:52:54.964Z,97.23
2022-09-30T09:55:25.773Z,97.18
2022-09-30T09:58:09.797Z,96.95
2022-09-30T10:00:58.077Z,96.46
2022-09-30T10:03:29.368Z,96.17
2022-09-30T10:06:06.382Z,95.86
2022-09-30T10:08:39.341Z,95.74
2022-09-30T10:11:20.729Z,95.44
2022-09-30T10:13:51.268Z,95.27
2022-09-30T10:16:40.424Z,95.08
2022-09-30T10:19:23.886Z,94.98
2022-09-30T10:21:55.381Z,94.71
2022-09-30T10:24:31.728Z,94.46
2022-09-30T10:27:01.570Z,94.47
2022-09-30T10:29:34.464Z,94.42
2022-09-30T10:32:11.022Z,94.10
2022-09-30T10:34:43.114Z,94.19
2022-09-30T10:37:17.799Z,94.01
2022-09-30T10:40:01.482Z,94.02
2022-09-30T10:42:35.286Z,94.02
2022-09-30T10:45:10.298Z,93.89
2022-09-30T10:47:48.143Z,94.03
2022-09-30T10:50:22.189Z,94.09
2022-09-30T10:52:57.804Z,94.08
2022-09-30T10:55:34.676Z,93.99
2022-09-30T10:58:24.487Z,93.82
2022-09-30T11:01:00.482Z,93.87
2022-09-30T11:03:39.681Z,93.83
2022-09-30T11:06:15.252Z,93.71
2022-09-30T11:08:52.812Z,93.55
2022-09-30T11:11:30.005Z,93.55
2022-09-30T11:14:04.767Z,93.28
2022-09-30T11:16:40.474Z,93.38
2022-09-30T11:19:22.651Z,93.46
2022-09-30T11:21:58.210Z,93.55
2022-09-30T11:24:37.152Z,93.65
2022-09-30T11:27:14.484Z,93.79
2022-09-30T11:29:56.883Z,93.76
2022-09-30T11:32:38.695Z,93.81
2022-09-30T11:35:26.518Z,93.60
2022-09-30T11:38:11.980Z,93.73
2022-09-30T11:40:51.346Z,93.41
2022-09-30T11:43:33.133Z,93.01
2022-09-30T11:46:22.918Z,92.88
2022-09-30T11:49:07.261Z,92.59
2022-09-30T11:51:46.032Z,92.41
2022-09-30T11:54:32.286Z,92.21
2022-09-30T11:57:08.774Z,92.02
2022-09-30T11:59:44.952Z,91.92
2022-09-30T12:02:29.547Z,91.72
2022-09-30T12:05:03.797Z,91.60
2022-09-30T12:07:42.573Z,91.44
2022-09-30T12:10:24.420Z,91.14
2022-09-30T12:12:59.314Z,91.18
2022-09-30T12:15:33.778Z,90.89
2022-09-30T12:18:06.452Z,90.63
2022-09-30T12:20:42.154Z,90.46
2022-09-30T12:23:21.959Z,90.27
2022-09-30T12:25:58.021Z,90.00
2022-09-30T12:28:48.623Z,90.00
2022-09-30T12:31:44.844Z,89.59
2022-09-30T12:34:35.917Z,89.52
2022-09-30T12:37:20.890Z,89.30
2022-09-30T12:40:13.746Z,89.16
2022-09-30T12:43:04.966Z,88.96
2022-09-30T12:45:58.105Z,89.16
2022-09-30T12:48:31.938Z,88.83
2022-09-30T12:51:02.661Z,88.75
2022-09-30T12:53:35.571Z,88.66
2022-09-30T12:56:11.056Z,88.47
2022-09-30T12:58:45.200Z,88.20
2022-09-30T13:01:18.517Z,88.07
2022-09-30T13:04:12.016Z,87.75
2022-09-30T13:07:18.887Z,87.48
2022-09-30T13:10:39.179Z,87.17
2022-09-30T13:13:24.204Z,86.89
2022-09-30T13:15:56.385Z,86.84
2022-09-30T13:18:56.108Z,86.64
2022-09-30T13:21:32.233Z,86.37
2022-09-30T13:24:03.682Z,85.95
2022-09-30T13:26:36.273Z,85.98
2022-09-30T13:29:39.393Z,86.00
2022-09-30T13:32:10.573Z,85.92
2022-09-30T13:34:59.014Z,85.80
2022-09-30T13:37:40.962Z,85.65
2022-09-30T13:40:43.607Z,85.57
2022-09-30T13:43:24.601Z,85.49
2022-09-30T13:46:00.159Z,85.28
2022-09-30T13:48:35.375Z,85.28
2022-09-30T13:51:14.719Z,85.27
2022-09-30T13:53:48.988Z,85.23
2022-09-30T13:56:23.658Z,85.10
2022-09-30T13:59:25.668Z,85.13
2022-09-30T14:02:22.725Z,85.10
2022-09-30T14:05:08.702Z,85.24
2022-09-30T14:07:51.633Z,85.27
2022-09-30T14:10:43.049Z,85.46
2022-09-30T14:13:27.869Z,85.48
2022-09-30T14:16:33.611Z,85.32
2022-09-30T14:19:26.730Z,85.27
2022-09-30T14:21:59.474Z,85.39
2022-09-30T14:24:36.516Z,85.12
2022-09-30T14:27:27.154Z,85.10
2022-09-30T14:30:04.573Z,85.07
2022-09-30T14:32:37.109Z,84.99
2022-09-30T14:35:11.822Z,84.98
2022-09-30T14:37:45.545Z,84.69
2022-09-30T14:40:20.894Z,84.81
2022-09-30T14:42:51.857Z,84.66
2022-09-30T14:45:26.955Z,84.69
2022-09-30T14:48:00.547Z,84.76
2022-09-30T14:50:39.738Z,84.85
2022-09-30T14:53:27.482Z,84.97
2022-09-30T14:55:57.494Z,84.96
2022-09-30T14:58:32.039Z,84.98
2022-09-30T15:01:06.084Z,84.98
2022-09-30T15:03:38.439Z,85.23
2022-09-30T15:06:21.575Z,85.27
2022-09-30T15:08:53.224Z,85.40
2022-09-30T15:11:26.147Z,85.24
2022-09-30T15:14:01.732Z,85.39
2022-09-30T15:16:34.829Z,85.34
2022-09-30T15:19:06.318Z,85.43
2022-09-30T15:21:39.126Z,85.55
2022-09-30T15:24:13.533Z,85.48
2022-09-30T15:26:44.647Z,85.51
2022-09-30T15:29:16.878Z,85.50
2022-09-30T15:31:49.598Z,85.28
2022-09-30T15:34:24.155Z,85.27
2022-09-30T15:37:07.041Z,85.47
2022-09-30T15:39:52.073Z,85.25
2022-09-30T15:42:35.461Z,85.49
2022-09-30T15:45:06.668Z,85.57
2022-09-30T15:47:36.452Z,85.60
2022-09-30T15:50:06.862Z,85.51
2022-09-30T15:52:43.041Z,85.64
2022-09-30T15:55:38.832Z,85.54
2022-09-30T15:58:37.978Z,85.61
2022-09-30T16:01:22.264Z,85.76
2022-09-30T16:03:58.106Z,85.78
2022-09-30T16:06:32.794Z,85.71
2022-09-30T16:09:08.803Z,86.01
2022-09-30T16:11:42.105Z,85.89
2022-09-30T16:14:20.177Z,85.98
2022-09-30T16:16:56.095Z,85.98
2022-09-30T16:19:27.313Z,86.22
2022-09-30T16:21:58.001Z,86.28
2022-09-30T16:25:03.802Z,86.34
2022-09-30T16:27:34.202Z,86.33
2022-09-30T16:30:05.170Z,86.47
2022-09-30T16:32:39.028Z,86.39
2022-09-30T16:35:10.489Z,86.55
2022-09-30T16:37:43.055Z,86.65
2022-09-30T16:40:21.063Z,86.77
2022-09-30T16:42:50.974Z,86.62
2022-09-30T16:45:21.153Z,86.70
2022-09-30T16:47:52.009Z,86.97
2022-09-30T16:50:28.324Z,87.07
2022-09-30T16:52:58.271Z,86.98
2022-09-30T16:55:30.962Z,87.23
2022-09-30T16:58:01.981Z,87.25
2022-09-30T17:00:32.221Z,87.32
2022-09-30T17:03:02.255Z,87.48
2022-09-30T17:05:32.033Z,87.63
2022-09-30T17:08:02.983Z,87.76
2022-09-30T17:10:36.751Z,87.69
2022-09-30T17:13:06.667Z,87.70
2022-09-30T17:15:37.537Z,87.95
2022-09-30T17:18:09.908Z,88.00
2022-09-30T17:20:40.853Z,88.20
2022-09-30T17:23:10.563Z,88.19
2022-09-30T17:25:45.567Z,88.29
2022-09-30T17:28:16.221Z,88.46
2022-09-30T17:30:48.091Z,88.58
2022-09-30T17:33:19.928Z,88.72
2022-09-30T17:36:01.089Z,88.72
2022-09-30T17:38:31.312Z,88.89
2022-09-30T17:41:16.536Z,88.84
2022-09-30T17:43:46.365Z,89.05
2022-09-30T17:46:19.261Z,89.09
2022-09-30T17:48:49.785Z,89.12
2022-09-30T17:51:19.966Z,89.27
2022-09-30T17:53:49.674Z,89.27
2022-09-30T17:56:24.247Z,89.35
2022-09-30T17:58:54.158Z,89.42
2022-09-30T18:01:24.596Z,89.50
2022-09-30T18:03:55.133Z,89.74
2022-09-30T18:06:24.939Z,89.76
2022-09-30T18:08:55.411Z,89.85
2022-09-30T18:11:31.488Z,89.82
2022-09-30T18:14:02.781Z,89.94
2022-09-30T18:16:34.639Z,89.98
2022-09-30T18:19:06.924Z,90.18
2022-09-30T18:21:38.091Z,90.37
2022-09-30T18:24:09.559Z,90.22
2022-09-30T18:26:42.021Z,90.38
2022-09-30T18:29:11.987Z,90.45
2022-09-30T18:31:41.719Z,90.67
2022-09-30T18:34:12.441Z,90.74
2022-09-30T18:36:42.557Z,90.73
2022-09-30T18:39:12.293Z,90.89
2022-09-30T18:41:46.001Z,90.93
2022-09-30T18:44:16.014Z,91.11
2022-09-30T18:46:47.426Z,91.21
2022-09-30T18:49:17.116Z,91.31
2022-09-30T18:51:47.096Z,91.33
2022-09-30T18:54:17.185Z,91.59
2022-09-30T18:56:50.922Z,91.74
2022-09-30T18:59:23.366Z,91.71
2022-09-30T19:01:55.848Z,91.86
2022-09-30T19:04:25.719Z,91.98
2022-09-30T19:06:55.464Z,92.09
2022-09-30T19:09:26.773Z,92.23
2022-09-30T19:11:59.514Z,92.24
2022-09-30T19:14:30.854Z,92.55
2022-09-30T19:17:00.571Z,92.55
2022-09-30T19:19:30.510Z,92.82
2022-09-30T19:22:01.496Z,92.80
2022-09-30T19:24:31.245Z,92.90
2022-09-30T19:27:03.598Z,92.95
2022-09-30T19:29:33.994Z,93.12
2022-09-30T19:32:04.645Z,93.17
2022-09-30T19:34:34.443Z,93.23
2022-09-30T19:37:04.341Z,93.37
2022-09-30T19:39:43.974Z,93.40
2022-09-30T19:42:18.706Z,93.45
2022-09-30T19:44:48.536Z,93.57
2022-09-30T19:47:18.926Z,93.64
2022-09-30T19:49:48.663Z,93.75
2022-09-30T19:52:22.172Z,93.85
2022-09-30T19:54:55.866Z,93.77
2022-09-30T19:57:29.881Z,93.88
2022-09-30T20:00:04.305Z,93.95
2022-09-30T20:02:35.601Z,93.96
2022-09-30T20:05:05.465Z,94.07
2022-09-30T20:07:35.233Z,94.15
2022-09-30T20:10:05.032Z,94.15
2022-09-30T20:12:37.382Z,94.20
2022-09-30T20:15:20.376Z,94.23
2022-09-30T20:17:50.066Z,94.31
2022-09-30T20:20:32.395Z,94.23
2022-09-30T20:23:03.659Z,94.31
2022-09-30T20:25:33.474Z,94.33
2022-09-30T20:28:06.988Z,94.30
2022-09-30T20:30:43.373Z,94.20
2022-09-30T20:33:13.175Z,94.22
2022-09-30T20:35:42.925Z,94.27
2022-09-30T20:38:15.504Z,94.24
2022-09-30T20:40:45.330Z,94.28
2022-09-30T20:43:17.731Z,94.13
2022-09-30T20:45:47.512Z,94.13
2022-09-30T20:48:17.243Z,94.14
2022-09-30T20:50:49.513Z,94.10
2022-09-30T20:53:19.324Z,94.02
2022-09-30T20:55:49.074Z,94.02
2022-09-30T20:58:21.688Z,94.01
2022-09-30T21:00:51.946Z,94.04
2022-09-30T21:03:21.714Z,93.98
2022-09-30T21:05:54.871Z,93.92
2022-09-30T21:08:24.694Z,93.80
2022-09-30T21:10:54.762Z,93.73
2022-09-30T21:13:27.142Z,93.67
2022-09-30T21:16:03.112Z,93.55
2022-09-30T21:18:33.566Z,93.55
2022-09-30T21:21:04.876Z,93.48
2022-09-30T21:23:37.306Z,93.42
2022-09-30T21:26:10.320Z,93.44
2022-09-30T21:28:46.833Z,93.27
2022-09-30T21:31:21.344Z,93.12
2022-09-30T21:33:53.775Z,93.15
2022-09-30T21:36:23.647Z,93.11
2022-09-30T21:38:55.030Z,92.94
2022-09-30T21:41:24.878Z,92.94
2022-09-30T21:43:58.547Z,92.97
2022-09-30T21:46:29.647Z,92.83
2022-09-30T21:49:07.697Z,92.75
2022-09-30T21:51:37.452Z,92.74
2022-09-30T21:54:13.736Z,92.81
2022-09-30T21:56:44.444Z,92.69
2022-09-30T21:59:16.857Z,92.72
2022-09-30T22:01:46.727Z,92.66
2022-09-30T22:04:16.476Z,92.57
2022-09-30T22:06:46.234Z,92.73
2022-09-30T22:09:16.102Z,92.82
2022-09-30T22:11:45.946Z,92.93
2022-09-30T22:14:18.751Z,93.00
2022-09-30T22:16:48.630Z,93.01
2022-09-30T22:19:20.578Z,93.32
2022-09-30T22:21:50.659Z,93.48
2022-09-30T22:24:20.487Z,93.58
2022-09-30T22:26:51.307Z,93.48
2022-09-30T22:29:23.699Z,93.88
2022-09-30T22:31:53.573Z,93.99
2022-09-30T22:34:35.707Z,94.27
2022-09-30T22:37:17.849Z,94.31
2022-09-30T22:39:47.648Z,94.54
2022-09-30T22:42:17.542Z,94.95
2022-09-30T22:44:50.446Z,95.15
2022-09-30T22:47:20.313Z,95.31
2022-09-30T22:49:50.232Z,95.52
2022-09-30T22:52:20.683Z,95.77
2022-09-30T22:54:50.594Z,96.14
2022-09-30T22:57:20.391Z,96.39
2022-09-30T22:59:53.107Z,96.56
2022-09-30T23:02:23.693Z,96.90
2022-09-30T23:04:54.505Z,97.14
2022-09-30T23:07:24.301Z,97.36
2022-09-30T23:09:54.056Z,97.60
2022-09-30T23:12:25.000Z,97.96
2022-09-30T23:14:58.089Z,98.08
2022-09-30T23:17:27.800Z,98.33
2022-09-30T23:19:57.684Z,98.66
2022-09-30T23:22:27.442Z,99.00
2022-09-30T23:24:57.160Z,99.19
2022-09-30T23:27:27.007Z,99.40
2022-09-30T23:29:59.343Z,99.66
2022-09-30T23:32:29.053Z,99.94
2022-09-30T23:34:58.784Z,100.00
2022-09-30T23:37:28.500Z,100.00
2022-09-30T23:39:58.334Z,100.00
2022-09-30T23:42:32.199Z,100.00
2022-09-30T23:45:04.541Z,100.00
2022-09-30T23:47:34.582Z,100.00
2022-09-30T23:50:04.578Z,100.00
2022-09-30T23:52:35.714Z,100.00
2022-09-30T23:55:05.464Z,100.00
2022-09-30T23:57:35.201Z,100.00
